Time;durP1;ratioP1;P1;durP2;ratioP2;P2;SDS_P1;SDS_P2;PMS_P1;PMS_P2;Temp;Humidity;BMP_temperature;BMP_pressure;BME280_temperature;BME280_humidity;BME280_pressure;Samples;Min_cycle;Max_cycle;Signal;HPM_P1;HPM_P2
2021/07/23 00:00:48;;;;;;;9.25;4.80;;;;;;;;;;5054136;28;20443;-88
2021/07/23 00:03:13;;;;;;;9.70;4.82;;;;;;;;;;5054176;28;20100;-88
2021/07/23 00:05:38;;;;;;;9.13;4.80;;;;;;;;;;5054110;28;20013;-88
2021/07/23 00:08:04;;;;;;;12.68;4.93;;;;;;;;;;5068026;28;20021;-88
2021/07/23 00:10:29;;;;;;;9.00;5.05;;;;;;;;;;5062986;28;20070;-88
2021/07/23 00:12:54;;;;;;;11.18;5.13;;;;;;;;;;5073821;28;20482;-88
2021/07/23 00:15:19;;;;;;;10.48;4.57;;;;;;;;;;5066802;28;20033;-88
2021/07/23 00:17:45;;;;;;;13.38;5.53;;;;;;;;;;5068116;28;20024;-88
2021/07/23 00:20:10;;;;;;;12.68;5.00;;;;;;;;;;5073776;28;20532;-88
2021/07/23 00:22:35;;;;;;;10.23;5.03;;;;;;;;;;5073836;28;20467;-88
2021/07/23 00:25:01;;;;;;;8.85;5.32;;;;;;;;;;5059401;28;20035;-88
2021/07/23 00:27:26;;;;;;;12.48;4.88;;;;;;;;;;5073825;28;20383;-88
2021/07/23 00:29:51;;;;;;;10.18;5.35;;;;;;;;;;5059080;28;20075;-87
2021/07/23 00:32:17;;;;;;;10.68;5.18;;;;;;;;;;5073620;28;20021;-88
2021/07/23 00:34:42;;;;;;;8.65;4.90;;;;;;;;;;5073624;28;20048;-88
2021/07/23 00:37:07;;;;;;;7.57;4.70;;;;;;;;;;5074754;28;20009;-88
2021/07/23 00:39:32;;;;;;;8.35;5.00;;;;;;;;;;5064881;28;20092;-88
2021/07/23 00:41:58;;;;;;;9.25;5.00;;;;;;;;;;5056959;28;20024;-88
2021/07/23 00:44:23;;;;;;;9.85;4.88;;;;;;;;;;5056809;28;20349;-88
2021/07/23 00:46:48;;;;;;;8.50;5.28;;;;;;;;;;5063366;28;20085;-88
2021/07/23 00:49:13;;;;;;;9.85;5.13;;;;;;;;;;5073179;28;20021;-88
2021/07/23 00:51:39;;;;;;;8.43;5.18;;;;;;;;;;5065391;28;20098;-88
2021/07/23 00:54:05;;;;;;;10.10;5.63;;;;;;;;;;5054677;28;20479;-88
2021/07/23 00:56:31;;;;;;;8.50;5.10;;;;;;;;;;5073179;28;20189;-88
2021/07/23 00:58:57;;;;;;;9.07;4.97;;;;;;;;;;5073241;28;20107;-88
2021/07/23 01:01:23;;;;;;;9.63;5.13;;;;;;;;;;5074398;28;20448;-88
2021/07/23 01:03:48;;;;;;;10.25;5.30;;;;;;;;;;5106916;28;20047;-88
2021/07/23 01:06:14;;;;;;;10.23;5.60;;;;;;;;;;5072785;28;20044;-88
2021/07/23 01:08:40;;;;;;;11.02;5.65;;;;;;;;;;5073040;28;20012;-88
2021/07/23 01:11:05;;;;;;;8.38;5.32;;;;;;;;;;5074307;28;20020;-88
2021/07/23 01:13:30;;;;;;;9.57;5.35;;;;;;;;;;5066382;28;20099;-88
2021/07/23 01:15:55;;;;;;;8.77;5.10;;;;;;;;;;5052826;28;20447;-88
2021/07/23 01:18:21;;;;;;;10.88;5.28;;;;;;;;;;5066849;28;20355;-88
2021/07/23 01:20:47;;;;;;;12.77;5.03;;;;;;;;;;5063650;28;20013;-88
2021/07/23 01:23:14;;;;;;;11.07;4.97;;;;;;;;;;5073928;28;20067;-87
2021/07/23 01:25:40;;;;;;;10.93;5.20;;;;;;;;;;5073754;28;20027;-88
2021/07/23 01:28:05;;;;;;;12.15;5.30;;;;;;;;;;5072545;28;20012;-87
2021/07/23 01:30:32;;;;;;;10.77;4.97;;;;;;;;;;5072271;28;20364;-88
2021/07/23 01:32:58;;;;;;;10.13;5.13;;;;;;;;;;5073813;28;20501;-88
2021/07/23 01:35:23;;;;;;;13.80;5.93;;;;;;;;;;5072343;28;20021;-88
2021/07/23 01:37:48;;;;;;;11.35;5.05;;;;;;;;;;5072397;28;20028;-88
2021/07/23 01:40:14;;;;;;;10.35;5.25;;;;;;;;;;5072288;28;20055;-88
2021/07/23 01:42:40;;;;;;;11.88;5.85;;;;;;;;;;5066404;28;20664;-88
2021/07/23 01:45:06;;;;;;;15.63;5.75;;;;;;;;;;5052113;28;20028;-88
2021/07/23 01:47:32;;;;;;;10.35;5.65;;;;;;;;;;5069278;28;20025;-88
2021/07/23 01:49:57;;;;;;;10.57;5.55;;;;;;;;;;5072203;28;20020;-88
2021/07/23 01:52:22;;;;;;;13.70;5.38;;;;;;;;;;5064124;28;20457;-88
2021/07/23 01:54:48;;;;;;;10.77;5.93;;;;;;;;;;5051694;28;20048;-88
2021/07/23 01:57:13;;;;;;;9.93;5.40;;;;;;;;;;5053367;28;20116;-88
2021/07/23 01:59:38;;;;;;;10.40;5.55;;;;;;;;;;5051291;28;20017;-88
2021/07/23 02:02:04;;;;;;;11.73;5.63;;;;;;;;;;5053261;28;20025;-88
2021/07/23 02:04:29;;;;;;;12.30;6.40;;;;;;;;;;5051643;28;20017;-88
2021/07/23 02:06:54;;;;;;;14.93;5.25;;;;;;;;;;5051410;28;20033;-88
2021/07/23 02:09:19;;;;;;;11.73;5.90;;;;;;;;;;5051744;28;20530;-88
2021/07/23 02:11:45;;;;;;;10.70;5.32;;;;;;;;;;5051865;28;20017;-88
2021/07/23 02:14:10;;;;;;;11.32;5.78;;;;;;;;;;5053016;28;20384;-88
2021/07/23 02:16:36;;;;;;;13.82;5.95;;;;;;;;;;5052598;28;20080;-88
2021/07/23 02:19:02;;;;;;;13.82;5.75;;;;;;;;;;5053024;28;20104;-88
2021/07/23 02:21:27;;;;;;;13.05;6.10;;;;;;;;;;5051324;28;20029;-88
2021/07/23 02:23:52;;;;;;;15.85;6.60;;;;;;;;;;5052855;28;20028;-88
2021/07/23 02:26:21;;;;;;;12.10;5.68;;;;;;;;;;5052653;28;20035;-88
2021/07/23 02:28:46;;;;;;;12.65;5.85;;;;;;;;;;5051450;28;20063;-88
2021/07/23 02:31:12;;;;;;;13.50;6.07;;;;;;;;;;5051544;28;20460;-88
2021/07/23 02:33:37;;;;;;;10.80;5.53;;;;;;;;;;5051323;28;20013;-88
2021/07/23 02:36:03;;;;;;;12.45;5.25;;;;;;;;;;5051562;28;20024;-88
2021/07/23 02:38:28;;;;;;;11.27;5.90;;;;;;;;;;5051178;28;20029;-88
2021/07/23 02:40:55;;;;;;;11.20;5.75;;;;;;;;;;5051392;28;20146;-88
2021/07/23 02:43:20;;;;;;;12.80;5.75;;;;;;;;;;5051146;28;20032;-87
2021/07/23 02:45:45;;;;;;;12.73;5.78;;;;;;;;;;5051771;28;20453;-88
2021/07/23 02:48:11;;;;;;;12.98;5.93;;;;;;;;;;5052490;28;20052;-88
2021/07/23 02:50:36;;;;;;;14.13;6.13;;;;;;;;;;5052507;28;20064;-88
2021/07/23 02:53:03;;;;;;;13.10;6.03;;;;;;;;;;5047865;28;20443;-87
2021/07/23 02:55:28;;;;;;;13.25;5.88;;;;;;;;;;5051158;28;20021;-88
2021/07/23 02:57:53;;;;;;;11.70;5.53;;;;;;;;;;5051223;28;20075;-88
2021/07/23 03:00:18;;;;;;;11.18;5.53;;;;;;;;;;5051016;28;20039;-88
2021/07/23 03:02:43;;;;;;;9.10;5.72;;;;;;;;;;5050150;28;20029;-88
2021/07/23 03:05:09;;;;;;;11.73;5.72;;;;;;;;;;5052417;28;20484;-88
2021/07/23 03:07:34;;;;;;;12.93;6.10;;;;;;;;;;5051063;28;20021;-88
2021/07/23 03:09:59;;;;;;;15.65;6.10;;;;;;;;;;5051079;28;20159;-88
2021/07/23 03:12:24;;;;;;;12.90;6.35;;;;;;;;;;5053713;28;20017;-88
2021/07/23 03:14:50;;;;;;;13.52;5.72;;;;;;;;;;5054692;28;20021;-88
2021/07/23 03:17:15;;;;;;;12.07;5.90;;;;;;;;;;5054983;28;20354;-88
2021/07/23 03:19:40;;;;;;;11.82;6.13;;;;;;;;;;5054781;28;20017;-88
2021/07/23 03:22:05;;;;;;;10.60;5.93;;;;;;;;;;5054894;28;20400;-88
2021/07/23 03:24:32;;;;;;;13.70;6.55;;;;;;;;;;5054787;28;20016;-88
2021/07/23 03:26:57;;;;;;;11.57;6.57;;;;;;;;;;5054964;28;20370;-88
2021/07/23 03:29:22;;;;;;;13.73;6.22;;;;;;;;;;5054727;28;20067;-88
2021/07/23 03:31:48;;;;;;;11.88;6.45;;;;;;;;;;5056614;28;20013;-88
2021/07/23 03:34:13;;;;;;;12.07;5.97;;;;;;;;;;5054747;28;20025;-88
2021/07/23 03:36:38;;;;;;;11.32;6.13;;;;;;;;;;5054713;28;20046;-88
2021/07/23 03:39:03;;;;;;;11.77;5.80;;;;;;;;;;5054666;28;20055;-88
2021/07/23 03:41:28;;;;;;;11.13;5.88;;;;;;;;;;5054521;28;20021;-88
2021/07/23 03:43:54;;;;;;;12.95;6.60;;;;;;;;;;5055506;28;20485;-88
2021/07/23 03:46:19;;;;;;;13.27;6.25;;;;;;;;;;5055417;28;20017;-88
2021/07/23 03:48:44;;;;;;;10.48;5.45;;;;;;;;;;5053869;28;20021;-88
2021/07/23 03:51:09;;;;;;;13.05;6.50;;;;;;;;;;5055763;28;20020;-88
2021/07/23 03:53:34;;;;;;;10.98;6.10;;;;;;;;;;5054188;28;20013;-88
2021/07/23 03:56:04;;;;;;;11.77;6.00;;;;;;;;;;5053875;28;20134;-88
2021/07/23 03:58:29;;;;;;;10.27;5.80;;;;;;;;;;5054319;28;20033;-88
2021/07/23 04:00:54;;;;;;;11.07;6.22;;;;;;;;;;5054277;28;20075;-88
2021/07/23 04:03:19;;;;;;;12.55;6.35;;;;;;;;;;5055691;28;20448;-88
2021/07/23 04:05:45;;;;;;;17.63;6.30;;;;;;;;;;5054092;28;20108;-88
2021/07/23 04:08:10;;;;;;;13.90;6.63;;;;;;;;;;5054138;28;20028;-88
2021/07/23 04:10:35;;;;;;;13.82;6.05;;;;;;;;;;5054137;28;20024;-88
2021/07/23 04:13:01;;;;;;;14.48;6.72;;;;;;;;;;5055112;28;20083;-88
2021/07/23 04:15:26;;;;;;;13.18;6.22;;;;;;;;;;5055427;28;20032;-88
2021/07/23 04:17:51;;;;;;;13.43;5.63;;;;;;;;;;5053872;28;20020;-88
2021/07/23 04:20:16;;;;;;;11.00;6.43;;;;;;;;;;5054067;28;20028;-88
2021/07/23 04:22:42;;;;;;;14.25;7.00;;;;;;;;;;5053187;28;20028;-88
2021/07/23 04:25:07;;;;;;;13.13;7.07;;;;;;;;;;5053715;28;20028;-88
2021/07/23 04:27:32;;;;;;;12.52;7.10;;;;;;;;;;5053321;28;20032;-88
2021/07/23 04:29:57;;;;;;;15.00;6.32;;;;;;;;;;5054912;28;20024;-88
2021/07/23 04:32:23;;;;;;;12.60;6.57;;;;;;;;;;5054885;28;20052;-88
2021/07/23 04:34:48;;;;;;;11.32;6.30;;;;;;;;;;5053321;28;20039;-89
2021/07/23 04:37:13;;;;;;;12.00;6.03;;;;;;;;;;5054867;28;20020;-88
2021/07/23 04:39:38;;;;;;;11.38;6.28;;;;;;;;;;5053330;28;20017;-88
2021/07/23 04:42:06;;;;;;;13.30;6.53;;;;;;;;;;5054748;28;20367;-88
2021/07/23 04:44:32;;;;;;;12.07;6.47;;;;;;;;;;5054781;28;20021;-89
2021/07/23 04:47:00;;;;;;;12.07;6.55;;;;;;;;;;5054472;28;20025;-88
2021/07/23 04:49:26;;;;;;;15.40;7.30;;;;;;;;;;5053283;28;20060;-88
2021/07/23 04:51:51;;;;;;;12.75;6.55;;;;;;;;;;5053265;28;20040;-88
2021/07/23 04:54:17;;;;;;;11.85;6.63;;;;;;;;;;5053511;28;20056;-88
2021/07/23 04:56:43;;;;;;;12.73;6.65;;;;;;;;;;5054538;28;20013;-88
2021/07/23 04:59:08;;;;;;;13.82;6.88;;;;;;;;;;5053209;28;20381;-88
2021/07/23 05:01:34;;;;;;;12.15;6.88;;;;;;;;;;5052774;28;20329;-88
2021/07/23 05:04:00;;;;;;;13.45;6.15;;;;;;;;;;5052992;28;20048;-88
2021/07/23 05:06:25;;;;;;;12.10;6.82;;;;;;;;;;5053062;28;20098;-88
2021/07/23 05:08:50;;;;;;;18.02;7.05;;;;;;;;;;5053009;28;20384;-89
2021/07/23 05:11:16;;;;;;;12.25;6.07;;;;;;;;;;5053002;28;20017;-88
2021/07/23 05:13:41;;;;;;;10.77;6.22;;;;;;;;;;5053017;28;20041;-88
2021/07/23 05:16:08;;;;;;;12.57;6.40;;;;;;;;;;5054066;28;20009;-88
2021/07/23 05:18:35;;;;;;;15.13;6.40;;;;;;;;;;5052920;28;20419;-88
2021/07/23 05:21:00;;;;;;;11.38;5.70;;;;;;;;;;5052820;28;20079;-89
2021/07/23 05:23:26;;;;;;;9.98;6.00;;;;;;;;;;5053972;28;20653;-89
2021/07/23 05:25:51;;;;;;;12.68;6.78;;;;;;;;;;5053859;28;20021;-89
2021/07/23 05:28:16;;;;;;;12.10;6.40;;;;;;;;;;5053842;28;20048;-88
2021/07/23 05:30:41;;;;;;;13.18;7.25;;;;;;;;;;5052454;28;20025;-88
2021/07/23 05:33:07;;;;;;;16.08;7.15;;;;;;;;;;5053499;28;20005;-88
2021/07/23 05:35:32;;;;;;;13.07;6.20;;;;;;;;;;5051547;28;20334;-88
2021/07/23 05:37:57;;;;;;;12.13;6.00;;;;;;;;;;5052400;28;20476;-88
2021/07/23 05:40:22;;;;;;;15.48;6.88;;;;;;;;;;5052469;28;20016;-88
2021/07/23 05:42:47;;;;;;;14.95;7.70;;;;;;;;;;5052392;28;20171;-88
2021/07/23 05:45:13;;;;;;;14.80;6.82;;;;;;;;;;5052096;28;20021;-88
2021/07/23 05:47:38;;;;;;;14.65;6.80;;;;;;;;;;5052093;28;20112;-88
2021/07/23 05:50:03;;;;;;;9.68;5.35;;;;;;;;;;5055928;28;20025;-89
2021/07/23 05:52:29;;;;;;;18.08;6.85;;;;;;;;;;5051956;28;20352;-88
2021/07/23 05:54:54;;;;;;;11.57;6.18;;;;;;;;;;5053308;28;20017;-88
2021/07/23 05:57:19;;;;;;;11.98;7.00;;;;;;;;;;5051997;28;20041;-88
2021/07/23 05:59:46;;;;;;;12.05;6.95;;;;;;;;;;5051084;28;20540;-88
2021/07/23 06:02:11;;;;;;;13.65;6.65;;;;;;;;;;5049980;28;20025;-88
2021/07/23 06:04:37;;;;;;;12.77;6.60;;;;;;;;;;5050553;28;20021;-88
2021/07/23 06:07:05;;;;;;;11.88;6.05;;;;;;;;;;5051188;28;20088;-88
2021/07/23 06:09:31;;;;;;;14.52;6.38;;;;;;;;;;5051398;28;20021;-88
2021/07/23 06:11:56;;;;;;;11.50;6.38;;;;;;;;;;5051313;28;20100;-89
2021/07/23 06:14:21;;;;;;;14.73;6.93;;;;;;;;;;5048356;28;20143;-88
2021/07/23 06:16:46;;;;;;;15.55;7.18;;;;;;;;;;5051542;28;20028;-88
2021/07/23 06:19:12;;;;;;;15.65;7.25;;;;;;;;;;5053012;28;20104;-88
2021/07/23 06:21:37;;;;;;;14.52;6.57;;;;;;;;;;5051800;28;20483;-88
2021/07/23 06:24:02;;;;;;;12.23;6.32;;;;;;;;;;5052659;28;20434;-88
2021/07/23 06:26:27;;;;;;;12.15;6.93;;;;;;;;;;5051089;28;20025;-88
2021/07/23 06:28:53;;;;;;;15.30;6.88;;;;;;;;;;5041011;28;20385;-88
2021/07/23 06:31:18;;;;;;;13.60;5.65;;;;;;;;;;5048392;28;20013;-89
2021/07/23 06:33:43;;;;;;;13.55;7.10;;;;;;;;;;5052543;28;20457;-88
2021/07/23 06:36:08;;;;;;;12.40;6.70;;;;;;;;;;5051543;28;20016;-88
2021/07/23 06:38:34;;;;;;;11.68;5.78;;;;;;;;;;5052784;28;20033;-88
2021/07/23 06:40:59;;;;;;;11.25;6.22;;;;;;;;;;5051056;28;20368;-88
2021/07/23 06:43:25;;;;;;;11.90;6.28;;;;;;;;;;5051140;28;20106;-88
2021/07/23 06:45:54;;;;;;;11.88;5.53;;;;;;;;;;5050823;28;20069;-88
2021/07/23 06:48:19;;;;;;;11.45;6.93;;;;;;;;;;5052112;28;20051;-88
2021/07/23 06:50:44;;;;;;;12.73;6.70;;;;;;;;;;5052203;28;20037;-89
2021/07/23 06:53:09;;;;;;;12.32;7.05;;;;;;;;;;5050700;28;20060;-88
2021/07/23 06:55:35;;;;;;;14.48;6.60;;;;;;;;;;5050860;28;20021;-89
2021/07/23 06:58:00;;;;;;;12.35;6.63;;;;;;;;;;5052020;28;20059;-88
2021/07/23 07:00:25;;;;;;;15.60;6.70;;;;;;;;;;5051939;28;20041;-88
2021/07/23 07:02:50;;;;;;;14.40;6.38;;;;;;;;;;5050090;28;20040;-89
2021/07/23 07:05:15;;;;;;;13.45;7.63;;;;;;;;;;5051056;28;20029;-89
2021/07/23 07:07:41;;;;;;;14.73;6.80;;;;;;;;;;5052361;28;20044;-89
2021/07/23 07:10:06;;;;;;;13.70;6.93;;;;;;;;;;5051443;28;20104;-88
2021/07/23 07:12:31;;;;;;;14.13;5.97;;;;;;;;;;5052282;28;20029;-88
2021/07/23 07:14:57;;;;;;;13.25;6.78;;;;;;;;;;5051243;28;20021;-88
2021/07/23 07:17:22;;;;;;;10.13;6.30;;;;;;;;;;5052390;28;20013;-88
2021/07/23 07:19:49;;;;;;;13.52;6.38;;;;;;;;;;5048119;28;20024;-89
2021/07/23 07:22:16;;;;;;;12.45;5.93;;;;;;;;;;5051283;28;20041;-90
2021/07/23 07:24:41;;;;;;;13.07;6.85;;;;;;;;;;5050920;28;20100;-89
2021/07/23 07:27:06;;;;;;;14.15;7.15;;;;;;;;;;5050498;28;20432;-89
2021/07/23 07:29:31;;;;;;;13.32;7.20;;;;;;;;;;5050799;28;20024;-89
2021/07/23 07:31:57;;;;;;;10.52;6.00;;;;;;;;;;5032733;28;20022;-89
2021/07/23 07:34:22;;;;;;;10.77;5.93;;;;;;;;;;5078076;28;20067;-89
2021/07/23 07:36:47;;;;;;;10.57;5.78;;;;;;;;;;5051281;28;20021;-89
2021/07/23 07:39:13;;;;;;;10.15;5.28;;;;;;;;;;5051086;28;20021;-89
2021/07/23 07:41:38;;;;;;;11.70;5.68;;;;;;;;;;5050996;28;20478;-89
2021/07/23 07:44:05;;;;;;;11.77;6.07;;;;;;;;;;5050922;28;20048;-89
2021/07/23 07:46:30;;;;;;;13.30;6.25;;;;;;;;;;5079680;28;20380;-89
2021/07/23 07:48:55;;;;;;;12.40;6.45;;;;;;;;;;5052486;28;20025;-89
2021/07/23 07:51:20;;;;;;;13.57;5.63;;;;;;;;;;5051071;28;20029;-89
2021/07/23 07:53:45;;;;;;;13.73;5.13;;;;;;;;;;5050404;28;20020;-89
2021/07/23 07:56:12;;;;;;;10.35;6.22;;;;;;;;;;5052102;28;20016;-89
2021/07/23 07:58:37;;;;;;;10.63;5.82;;;;;;;;;;5054204;28;20013;-89
2021/07/23 08:01:06;;;;;;;11.23;5.68;;;;;;;;;;5054544;28;20051;-89
2021/07/23 08:03:32;;;;;;;10.23;5.78;;;;;;;;;;5054513;28;20558;-89
2021/07/23 08:06:02;;;;;;;20.55;4.85;;;;;;;;;;5055425;28;20104;-89
2021/07/23 08:08:27;;;;;;;8.80;5.50;;;;;;;;;;5054149;28;20443;-90
2021/07/23 08:10:52;;;;;;;11.85;4.38;;;;;;;;;;5040161;28;20025;-90
2021/07/23 08:13:17;;;;;;;13.18;5.93;;;;;;;;;;5054378;28;20536;-90
2021/07/23 08:15:44;;;;;;;11.52;5.35;;;;;;;;;;5053732;28;20388;-89
2021/07/23 08:18:09;;;;;;;9.02;5.20;;;;;;;;;;5054017;28;20053;-88
2021/07/23 08:20:34;;;;;;;14.68;5.40;;;;;;;;;;5054043;28;20024;-89
2021/07/23 08:23:00;;;;;;;10.20;5.05;;;;;;;;;;5055059;28;20218;-89
2021/07/23 08:25:25;;;;;;;10.25;5.47;;;;;;;;;;5055109;28;20028;-89
2021/07/23 08:27:50;;;;;;;10.70;4.97;;;;;;;;;;5054801;28;20043;-88
2021/07/23 08:30:15;;;;;;;11.38;5.47;;;;;;;;;;5054853;28;20024;-88
2021/07/23 08:32:44;;;;;;;15.60;5.88;;;;;;;;;;5055017;28;20024;-87
2021/07/23 08:35:09;;;;;;;10.38;5.47;;;;;;;;;;5054926;28;20612;-89
2021/07/23 08:37:34;;;;;;;9.65;4.65;;;;;;;;;;5053524;28;20028;-88
2021/07/23 08:40:00;;;;;;;9.48;5.28;;;;;;;;;;5054668;28;20013;-89
2021/07/23 08:42:27;;;;;;;9.38;5.30;;;;;;;;;;5053512;28;20468;-89
2021/07/23 08:44:52;;;;;;;9.48;5.47;;;;;;;;;;5053227;28;20052;-89
2021/07/23 08:47:19;;;;;;;8.43;5.15;;;;;;;;;;5052903;28;20052;-90
2021/07/23 08:49:44;;;;;;;12.35;6.20;;;;;;;;;;5053416;28;20017;-88
2021/07/23 08:52:09;;;;;;;13.68;6.60;;;;;;;;;;5053160;28;20024;-89
2021/07/23 08:54:34;;;;;;;10.50;5.97;;;;;;;;;;5053385;28;20478;-89
2021/07/23 08:57:00;;;;;;;9.48;5.10;;;;;;;;;;5053016;28;20044;-89
2021/07/23 08:59:25;;;;;;;9.88;5.35;;;;;;;;;;5054509;28;20025;-89
2021/07/23 09:02:00;;;;;;;12.65;5.13;;;;;;;;;;5053985;28;20116;-89
2021/07/23 09:04:26;;;;;;;12.25;6.05;;;;;;;;;;5054399;28;20020;-89
2021/07/23 09:07:11;;;;;;;12.23;5.38;;;;;;;;;;5053012;28;20021;-89
2021/07/23 09:09:36;;;;;;;8.38;5.03;;;;;;;;;;5053024;28;20440;-89
2021/07/23 09:12:02;;;;;;;10.38;5.47;;;;;;;;;;5054341;28;20096;-89
2021/07/23 09:14:27;;;;;;;11.38;5.15;;;;;;;;;;5052970;28;20027;-89
2021/07/23 09:16:56;;;;;;;10.40;5.35;;;;;;;;;;5052692;28;20033;-89
2021/07/23 09:19:21;;;;;;;14.63;6.38;;;;;;;;;;5052860;28;20051;-89
2021/07/23 09:21:46;;;;;;;9.98;5.50;;;;;;;;;;5054130;28;20461;-89
2021/07/23 09:24:12;;;;;;;9.43;5.65;;;;;;;;;;5052967;28;20117;-89
2021/07/23 09:26:41;;;;;;;9.52;5.20;;;;;;;;;;5053930;28;20027;-89
2021/07/23 09:29:07;;;;;;;8.73;4.32;;;;;;;;;;5054041;28;20039;-88
2021/07/23 09:31:33;;;;;;;8.65;4.80;;;;;;;;;;5052607;28;20047;-89
2021/07/23 09:33:59;;;;;;;11.57;5.10;;;;;;;;;;5054052;28;20096;-89
2021/07/23 09:36:24;;;;;;;10.18;5.90;;;;;;;;;;5053447;28;20464;-89
2021/07/23 09:38:49;;;;;;;14.05;6.53;;;;;;;;;;5052639;28;20021;-89
2021/07/23 09:41:17;;;;;;;17.23;6.25;;;;;;;;;;5053662;28;20032;-89
2021/07/23 09:43:45;;;;;;;9.15;4.82;;;;;;;;;;5052515;28;20039;-89
2021/07/23 09:46:17;;;;;;;9.63;5.05;;;;;;;;;;5052349;28;20032;-89
2021/07/23 09:48:42;;;;;;;9.23;5.32;;;;;;;;;;5052060;28;20049;-89
2021/07/23 09:51:07;;;;;;;14.50;6.07;;;;;;;;;;5052263;28;20027;-89
2021/07/23 09:53:34;;;;;;;15.13;6.03;;;;;;;;;;5053478;28;20020;-89
2021/07/23 09:56:03;;;;;;;12.43;5.22;;;;;;;;;;5052275;28;20028;-89
2021/07/23 09:58:28;;;;;;;11.90;5.80;;;;;;;;;;5051799;28;20028;-89
2021/07/23 10:01:00;;;;;;;10.77;5.13;;;;;;;;;;5052060;28;20020;-89
2021/07/23 10:03:27;;;;;;;13.90;4.97;;;;;;;;;;5052144;28;20140;-89
2021/07/23 10:06:12;;;;;;;13.43;5.32;;;;;;;;;;5051759;28;20373;-89
2021/07/23 10:08:46;;;;;;;11.25;5.60;;;;;;;;;;5049235;28;20086;-89
2021/07/23 10:11:11;;;;;;;17.15;5.18;;;;;;;;;;5051899;28;20021;-90
2021/07/23 10:13:40;;;;;;;13.05;4.65;;;;;;;;;;5053225;28;20017;-89
2021/07/23 10:16:08;;;;;;;11.63;5.00;;;;;;;;;;5053291;28;20017;-89
2021/07/23 10:18:34;;;;;;;10.13;5.30;;;;;;;;;;5043943;28;20376;-89
2021/07/23 10:20:59;;;;;;;9.52;4.78;;;;;;;;;;5047849;28;20025;-89
2021/07/23 10:23:25;;;;;;;13.38;5.20;;;;;;;;;;5051901;28;20464;-89
2021/07/23 10:25:51;;;;;;;8.52;4.30;;;;;;;;;;5051745;28;20024;-90
2021/07/23 10:28:43;;;;;;;8.73;4.93;;;;;;;;;;5051806;28;20013;-89
2021/07/23 10:31:17;;;;;;;8.38;4.72;;;;;;;;;;5051719;28;20052;-89
2021/07/23 10:33:52;;;;;;;8.75;5.05;;;;;;;;;;5051347;28;20051;-89
2021/07/23 10:36:26;;;;;;;12.10;6.18;;;;;;;;;;5052942;28;20102;-89
2021/07/23 10:39:10;;;;;;;11.07;4.85;;;;;;;;;;5051645;28;20132;-89
2021/07/23 10:41:37;;;;;;;10.15;5.28;;;;;;;;;;5052586;28;20453;-89
2021/07/23 10:44:04;;;;;;;8.07;4.25;;;;;;;;;;5051594;28;20032;-89
2021/07/23 10:46:47;;;;;;;8.23;4.13;;;;;;;;;;5051285;28;20475;-89
2021/07/23 10:49:24;;;;;;;8.05;4.22;;;;;;;;;;5051606;28;20078;-89
2021/07/23 10:51:58;;;;;;;14.63;4.55;;;;;;;;;;5052456;28;20012;-90
2021/07/23 10:54:24;;;;;;;7.07;4.53;;;;;;;;;;5041736;28;20021;-89
2021/07/23 10:56:56;;;;;;;9.88;4.97;;;;;;;;;;5051523;28;20435;-89
2021/07/23 10:59:40;;;;;;;6.28;4.03;;;;;;;;;;5051516;28;20048;-89
2021/07/23 11:02:06;;;;;;;12.98;5.22;;;;;;;;;;5051290;28;20021;-89
2021/07/23 11:04:31;;;;;;;10.75;4.43;;;;;;;;;;5051222;28;20025;-89
2021/07/23 11:07:00;;;;;;;6.70;4.15;;;;;;;;;;5052520;28;20031;-89
2021/07/23 11:09:25;;;;;;;8.15;4.20;;;;;;;;;;5051922;28;20421;-89
2021/07/23 11:11:50;;;;;;;8.57;4.90;;;;;;;;;;5051208;28;20041;-89
2021/07/23 11:14:17;;;;;;;7.35;4.07;;;;;;;;;;5050969;28;20017;-90
2021/07/23 11:16:42;;;;;;;5.95;3.60;;;;;;;;;;5052564;28;20368;-89
2021/07/23 11:19:07;;;;;;;7.18;3.75;;;;;;;;;;5052370;28;20127;-90
2021/07/23 11:21:36;;;;;;;8.23;4.05;;;;;;;;;;5051478;28;20045;-89
2021/07/23 11:24:08;;;;;;;5.63;3.28;;;;;;;;;;5051173;28;20107;-89
2021/07/23 11:26:33;;;;;;;6.55;3.03;;;;;;;;;;5050659;28;20017;-89
2021/07/23 11:28:59;;;;;;;7.65;3.80;;;;;;;;;;5051289;28;20025;-89
2021/07/23 11:31:31;;;;;;;6.93;3.28;;;;;;;;;;5052238;28;20079;-89
2021/07/23 11:33:57;;;;;;;8.38;3.10;;;;;;;;;;5053521;28;20013;-89
2021/07/23 11:36:38;;;;;;;8.18;3.22;;;;;;;;;;5055914;28;20043;-89
2021/07/23 11:39:07;;;;;;;5.80;3.30;;;;;;;;;;5056208;28;20017;-89
2021/07/23 11:41:32;;;;;;;6.97;3.33;;;;;;;;;;5054872;28;20471;-89
2021/07/23 11:44:08;;;;;;;5.93;3.97;;;;;;;;;;5055942;28;20036;-90
2021/07/23 11:46:34;;;;;;;10.35;3.88;;;;;;;;;;5055610;28;20027;-90
2021/07/23 11:49:01;;;;;;;8.93;3.63;;;;;;;;;;5055823;28;20029;-89
2021/07/23 11:51:42;;;;;;;9.38;3.55;;;;;;;;;;5054713;28;20013;-89
2021/07/23 11:54:10;;;;;;;9.95;3.20;;;;;;;;;;5054342;28;20453;-89
2021/07/23 11:56:36;;;;;;;9.45;3.92;;;;;;;;;;5054500;28;20021;-89
2021/07/23 11:59:05;;;;;;;7.55;4.25;;;;;;;;;;5054607;28;20079;-89
2021/07/23 12:01:37;;;;;;;8.48;3.67;;;;;;;;;;5054336;28;20047;-89
2021/07/23 12:04:02;;;;;;;;;;;;;;;;;;5054598;28;20025;-89
2021/07/23 12:06:29;;;;;;;6.07;2.80;;;;;;;;;;5054370;28;20003;-90
2021/07/23 12:08:55;;;;;;;4.85;3.00;;;;;;;;;;5053718;28;20082;-89
2021/07/23 12:11:23;;;;;;;6.15;3.10;;;;;;;;;;5054232;28;20017;-89
2021/07/23 12:13:49;;;;;;;8.43;3.78;;;;;;;;;;5054272;28;20025;-90
2021/07/23 12:16:15;;;;;;;9.30;3.30;;;;;;;;;;5055520;28;20372;-89
2021/07/23 12:18:53;;;;;;;8.02;2.90;;;;;;;;;;5055217;28;20025;-89
2021/07/23 12:21:21;;;;;;;5.75;3.40;;;;;;;;;;5055175;28;20021;-90
2021/07/23 12:23:55;;;;;;;7.88;3.50;;;;;;;;;;5055428;28;20020;-90
2021/07/23 12:26:28;;;;;;;9.20;4.03;;;;;;;;;;5053797;28;20021;-90
2021/07/23 12:28:54;;;;;;;5.65;3.30;;;;;;;;;;5053820;28;20377;-90
2021/07/23 12:31:19;;;;;;;9.98;3.40;;;;;;;;;;5055026;28;20020;-90
2021/07/23 12:33:44;;;;;;;5.93;3.30;;;;;;;;;;5053874;28;20013;-90
2021/07/23 12:36:25;;;;;;;6.97;2.95;;;;;;;;;;5053932;28;20079;-89
2021/07/23 12:39:03;;;;;;;6.43;3.08;;;;;;;;;;5053971;28;20107;-90
2021/07/23 12:41:28;;;;;;;8.68;2.78;;;;;;;;;;5053570;28;20029;-90
2021/07/23 12:44:04;;;;;;;7.63;3.00;;;;;;;;;;5053466;28;20090;-89
2021/07/23 12:46:29;;;;;;;4.25;2.92;;;;;;;;;;5053127;28;20064;-90
2021/07/23 12:48:55;;;;;;;6.72;3.45;;;;;;;;;;5053656;28;20515;-89
2021/07/23 12:51:24;;;;;;;4.43;2.38;;;;;;;;;;5054821;28;20037;-90
2021/07/23 12:53:55;;;;;;;2.72;2.10;;;;;;;;;;5053124;28;20496;-89
2021/07/23 12:56:28;;;;;;;5.22;2.92;;;;;;;;;;5053482;28;20020;-90
2021/07/23 12:58:56;;;;;;;4.43;2.83;;;;;;;;;;5054610;28;20033;-90
2021/07/23 13:01:21;;;;;;;4.93;2.67;;;;;;;;;;5054505;28;20021;-90
2021/07/23 13:03:46;;;;;;;6.32;2.80;;;;;;;;;;5055220;28;20032;-89
2021/07/23 13:06:16;;;;;;;3.67;2.35;;;;;;;;;;5052774;28;20492;-89
2021/07/23 13:08:42;;;;;;;3.47;2.45;;;;;;;;;;5053175;28;20035;-89
2021/07/23 13:11:08;;;;;;;7.07;2.50;;;;;;;;;;5054349;28;20013;-89
2021/07/23 13:13:42;;;;;;;4.50;2.53;;;;;;;;;;5054436;28;20017;-89
2021/07/23 13:16:08;;;;;;;5.18;2.35;;;;;;;;;;5052969;28;20063;-89
2021/07/23 13:18:34;;;;;;;9.02;2.88;;;;;;;;;;5052964;28;20025;-89
2021/07/23 13:20:59;;;;;;;6.65;2.75;;;;;;;;;;5052365;28;20071;-89
2021/07/23 13:23:25;;;;;;;4.10;2.58;;;;;;;;;;5052682;28;20024;-90
2021/07/23 13:25:50;;;;;;;4.78;2.50;;;;;;;;;;5052789;28;20049;-89
2021/07/23 13:28:16;;;;;;;5.35;2.40;;;;;;;;;;5052774;28;20065;-89
2021/07/23 13:30:41;;;;;;;4.90;2.42;;;;;;;;;;5052934;28;20028;-90
2021/07/23 13:33:06;;;;;;;3.72;2.60;;;;;;;;;;5053661;28;20009;-89
2021/07/23 13:35:31;;;;;;;3.58;2.17;;;;;;;;;;5053689;28;20036;-89
2021/07/23 13:37:57;;;;;;;7.07;2.58;;;;;;;;;;5052578;28;20124;-89
2021/07/23 13:40:26;;;;;;;5.25;2.30;;;;;;;;;;5052607;28;20013;-89
2021/07/23 13:42:55;;;;;;;4.13;2.33;;;;;;;;;;5052680;28;20036;-89
2021/07/23 13:45:20;;;;;;;3.92;2.25;;;;;;;;;;5052460;28;20044;-89
2021/07/23 13:47:47;;;;;;;6.25;2.10;;;;;;;;;;5052295;28;20047;-89
2021/07/23 13:50:13;;;;;;;3.97;2.17;;;;;;;;;;5052376;28;20070;-89
2021/07/23 13:52:38;;;;;;;4.57;2.20;;;;;;;;;;5052535;28;20024;-89
2021/07/23 13:55:04;;;;;;;10.45;2.35;;;;;;;;;;5051261;28;20036;-89
2021/07/23 13:57:29;;;;;;;3.78;2.38;;;;;;;;;;5051129;28;20107;-89
2021/07/23 13:59:54;;;;;;;7.25;2.45;;;;;;;;;;5053061;28;20052;-89
2021/07/23 14:02:19;;;;;;;6.50;1.98;;;;;;;;;;5051089;28;20017;-89
2021/07/23 14:04:49;;;;;;;7.88;2.58;;;;;;;;;;5051662;28;20298;-90
2021/07/23 14:07:18;;;;;;;8.10;3.00;;;;;;;;;;5052391;28;20036;-90
2021/07/23 14:09:43;;;;;;;4.07;2.53;;;;;;;;;;5051066;28;20019;-90
2021/07/23 14:12:08;;;;;;;4.95;2.67;;;;;;;;;;5051518;28;20115;-90
2021/07/23 14:14:34;;;;;;;6.13;2.35;;;;;;;;;;5050822;28;20013;-89
2021/07/23 14:16:59;;;;;;;4.90;2.05;;;;;;;;;;5051741;28;20033;-89
2021/07/23 14:19:24;;;;;;;4.97;1.95;;;;;;;;;;5051743;28;20025;-90
2021/07/23 14:21:49;;;;;;;4.03;2.20;;;;;;;;;;5051834;28;20021;-90
2021/07/23 14:24:14;;;;;;;2.70;2.00;;;;;;;;;;5052866;28;20110;-88
2021/07/23 14:26:40;;;;;;;6.10;1.88;;;;;;;;;;5051612;28;20027;-90
2021/07/23 14:29:05;;;;;;;3.50;1.98;;;;;;;;;;5051765;28;20095;-90
2021/07/23 14:31:30;;;;;;;3.38;2.15;;;;;;;;;;5051218;28;20021;-90